Terminal Aerodrome Forecast
Issued by NWS

Home | Current Version | Previous Version | Text Only | Print | Product List | Glossary Off
Versions: 1 2 3 4 5 6 7 8 9 10 11 12 13 14 15 16 17 18

663
FTUS43 KICT 292058 AAA
TAFCNU
TAF AMD
KCNU 292058Z 2921/3018 05015G23KT P6SM VCTS OVC025CB
      TEMPO 2921/2922 25035G40KT 1SM +TSRA OVC015CB
     FM292300 09014KT P6SM VCTS OVC020CB
      TEMPO 2923/3003 2SM +TSRA BKN008 OVC015CB
     FM300300 11011KT 4SM TSRA OVC009CB
     FM301000 20007KT 3SM BR OVC007
     FM301600 24013KT P6SM SCT025=

USA.gov is the U.S. government's official web portal to all federal, state and local government web resources and services.